createdAt,value
2022-10-18T00:00:59.817Z,100.00
2022-10-18T00:03:28.098Z,100.00
2022-10-18T00:05:55.881Z,100.00
2022-10-18T00:08:23.799Z,100.00
2022-10-18T00:10:51.841Z,100.00
2022-10-18T00:13:20.247Z,100.00
2022-10-18T00:15:54.564Z,100.00
2022-10-18T00:18:23.013Z,100.00
2022-10-18T00:20:58.442Z,100.00
2022-10-18T00:23:26.195Z,100.00
2022-10-18T00:26:00.811Z,100.00
2022-10-18T00:28:28.883Z,100.00
2022-10-18T00:30:58.323Z,100.00
2022-10-18T00:33:26.039Z,100.00
2022-10-18T00:35:53.720Z,100.00
2022-10-18T00:38:21.467Z,100.00
2022-10-18T00:40:49.220Z,100.00
2022-10-18T00:43:19.126Z,100.00
2022-10-18T00:45:46.822Z,100.00
2022-10-18T00:48:19.026Z,100.00
2022-10-18T00:50:48.693Z,100.00
2022-10-18T00:53:18.856Z,100.00
2022-10-18T00:55:47.012Z,100.00
2022-10-18T00:58:17.950Z,100.00
2022-10-18T01:00:45.761Z,100.00
2022-10-18T01:03:13.741Z,100.00
2022-10-18T01:05:45.766Z,100.00
2022-10-18T01:08:28.301Z,100.00
2022-10-18T01:11:08.253Z,100.00
2022-10-18T01:13:53.748Z,100.00
2022-10-18T01:16:28.104Z,100.00
2022-10-18T01:19:02.592Z,100.00
2022-10-18T01:21:39.444Z,100.00
2022-10-18T01:24:38.444Z,100.00
2022-10-18T01:27:24.853Z,100.00
2022-10-18T01:30:33.464Z,100.00
2022-10-18T01:33:08.267Z,100.00
2022-10-18T01:35:41.742Z,100.00
2022-10-18T01:38:17.327Z,100.00
2022-10-18T01:40:48.419Z,100.00
2022-10-18T01:43:18.121Z,100.00
2022-10-18T01:45:46.412Z,100.00
2022-10-18T01:48:16.880Z,100.00
2022-10-18T01:50:44.572Z,100.00
2022-10-18T01:53:27.021Z,100.00
2022-10-18T01:56:05.622Z,100.00
2022-10-18T01:58:40.558Z,100.00
2022-10-18T02:01:14.940Z,100.00
2022-10-18T02:03:49.863Z,100.00
2022-10-18T02:06:23.080Z,100.00
2022-10-18T02:08:56.186Z,100.00
2022-10-18T02:11:24.262Z,100.00
2022-10-18T02:13:56.781Z,100.00
2022-10-18T02:16:29.492Z,100.00
2022-10-18T02:19:02.112Z,100.00
2022-10-18T02:21:31.476Z,100.00
2022-10-18T02:24:00.931Z,100.00
2022-10-18T02:26:29.410Z,100.00
2022-10-18T02:28:57.596Z,100.00
2022-10-18T02:31:30.389Z,100.00
2022-10-18T02:34:03.753Z,100.00
2022-10-18T02:36:37.148Z,100.00
2022-10-18T02:39:08.667Z,100.00
2022-10-18T02:41:36.421Z,100.00
2022-10-18T02:44:04.348Z,100.00
2022-10-18T02:46:32.111Z,100.00
2022-10-18T02:49:01.195Z,100.00
2022-10-18T02:51:28.837Z,100.00
2022-10-18T02:53:56.883Z,100.00
2022-10-18T02:56:24.604Z,100.00
2022-10-18T02:58:52.581Z,100.00
2022-10-18T03:01:20.333Z,100.00
2022-10-18T03:03:48.148Z,100.00
2022-10-18T03:06:17.267Z,100.00
2022-10-18T03:08:44.963Z,100.00
2022-10-18T03:11:12.707Z,100.00
2022-10-18T03:13:40.410Z,100.00
2022-10-18T03:16:08.225Z,100.00
2022-10-18T03:18:36.024Z,100.00
2022-10-18T03:21:06.245Z,100.00
2022-10-18T03:23:35.568Z,100.00
2022-10-18T03:26:03.739Z,100.00
2022-10-18T03:28:31.486Z,100.00
2022-10-18T03:31:02.292Z,100.00
2022-10-18T03:33:30.215Z,100.00
2022-10-18T03:35:58.001Z,100.00
2022-10-18T03:38:25.703Z,100.00
2022-10-18T03:40:55.259Z,100.00
2022-10-18T03:43:23.294Z,100.00
2022-10-18T03:45:51.296Z,100.00
2022-10-18T03:48:19.063Z,100.00
2022-10-18T03:50:46.831Z,100.00
2022-10-18T03:53:14.777Z,100.00
2022-10-18T03:55:42.571Z,100.00
2022-10-18T03:58:11.688Z,100.00
2022-10-18T04:00:39.372Z,100.00
2022-10-18T04:03:07.147Z,100.00
2022-10-18T04:05:35.227Z,100.00
2022-10-18T04:08:02.981Z,100.00
2022-10-18T04:10:30.664Z,100.00
2022-10-18T04:12:58.613Z,100.00
2022-10-18T04:15:27.696Z,100.00
2022-10-18T04:17:56.744Z,100.00
2022-10-18T04:20:24.813Z,100.00
2022-10-18T04:22:54.953Z,100.00
2022-10-18T04:25:23.204Z,100.00
2022-10-18T04:27:50.975Z,100.00
2022-10-18T04:30:19.409Z,100.00
2022-10-18T04:32:48.506Z,100.00
2022-10-18T04:35:16.399Z,100.00
2022-10-18T04:37:44.091Z,100.00
2022-10-18T04:40:12.949Z,100.00
2022-10-18T04:42:40.684Z,100.00
2022-10-18T04:45:09.518Z,100.00
2022-10-18T04:47:37.196Z,100.00
2022-10-18T04:50:07.109Z,100.00
2022-10-18T04:52:34.851Z,100.00
2022-10-18T04:55:02.612Z,100.00
2022-10-18T04:57:30.597Z,100.00
2022-10-18T04:59:58.529Z,100.00
2022-10-18T05:02:26.321Z,100.00
2022-10-18T05:04:54.421Z,100.00
2022-10-18T05:07:23.563Z,100.00
2022-10-18T05:09:51.270Z,100.00
2022-10-18T05:12:18.937Z,100.00
2022-10-18T05:14:46.797Z,100.00
2022-10-18T05:17:14.577Z,100.00
2022-10-18T05:19:42.264Z,100.00
2022-10-18T05:22:10.067Z,100.00
2022-10-18T05:24:39.197Z,100.00
2022-10-18T05:27:06.916Z,100.00
2022-10-18T05:29:34.671Z,100.00
2022-10-18T05:32:02.440Z,100.00
2022-10-18T05:34:31.919Z,100.00
2022-10-18T05:37:00.405Z,100.00
2022-10-18T05:39:28.359Z,100.00
2022-10-18T05:41:58.058Z,100.00
2022-10-18T05:44:25.792Z,100.00
2022-10-18T05:46:53.488Z,100.00
2022-10-18T05:49:21.395Z,100.00
2022-10-18T05:51:49.318Z,100.00
2022-10-18T05:54:17.460Z,100.00
2022-10-18T05:56:45.140Z,100.00
2022-10-18T05:59:14.461Z,100.00
2022-10-18T06:01:43.687Z,100.00
2022-10-18T06:04:11.449Z,100.00
2022-10-18T06:06:40.285Z,100.00
2022-10-18T06:09:08.837Z,100.00
2022-10-18T06:11:37.624Z,100.00
2022-10-18T06:14:06.079Z,100.00
2022-10-18T06:19:02.880Z,100.00
2022-10-18T06:21:30.596Z,100.00
2022-10-18T06:23:59.854Z,100.00
2022-10-18T06:26:28.994Z,100.00
2022-10-18T06:28:56.864Z,100.00
2022-10-18T06:31:24.829Z,100.00
2022-10-18T06:33:53.896Z,100.00
2022-10-18T06:36:23.056Z,100.00
2022-10-18T06:38:51.149Z,100.00
2022-10-18T06:41:19.199Z,100.00
2022-10-18T06:43:49.589Z,100.00
2022-10-18T06:46:18.017Z,100.00
2022-10-18T06:48:45.718Z,100.00
2022-10-18T06:51:15.149Z,100.00
2022-10-18T06:53:53.423Z,100.00
2022-10-18T06:56:31.332Z,100.00
2022-10-18T07:01:28.454Z,100.00
2022-10-18T07:03:56.553Z,100.00
2022-10-18T07:06:26.293Z,100.00
2022-10-18T07:08:54.186Z,100.00
2022-10-18T07:11:25.071Z,100.00
2022-10-18T07:13:54.340Z,100.00
2022-10-18T07:16:22.457Z,100.00
2022-10-18T07:18:52.178Z,100.00
2022-10-18T07:21:22.070Z,100.00
2022-10-18T07:23:51.935Z,100.00
2022-10-18T07:26:22.223Z,100.00
2022-10-18T07:28:52.326Z,100.00
2022-10-18T07:31:20.134Z,100.00
2022-10-18T07:33:48.664Z,100.00
2022-10-18T07:36:16.711Z,100.00
2022-10-18T07:38:44.643Z,100.00
2022-10-18T07:41:15.346Z,100.00
2022-10-18T07:43:45.668Z,100.00
2022-10-18T07:46:14.790Z,100.00
2022-10-18T07:48:42.812Z,100.00
2022-10-18T07:51:11.069Z,100.00
2022-10-18T07:53:39.447Z,100.00
2022-10-18T07:56:11.819Z,100.00
2022-10-18T07:58:40.989Z,100.00
2022-10-18T08:01:09.843Z,100.00
2022-10-18T08:03:38.920Z,100.00
2022-10-18T08:06:09.576Z,100.00
2022-10-18T08:08:38.039Z,100.00
2022-10-18T08:11:07.293Z,100.00
2022-10-18T08:13:35.010Z,100.00
2022-10-18T08:16:06.427Z,100.00
2022-10-18T08:18:34.332Z,100.00
2022-10-18T08:21:02.652Z,100.00
2022-10-18T08:23:30.752Z,100.00
2022-10-18T08:26:01.631Z,100.00
2022-10-18T08:28:29.402Z,100.00
2022-10-18T08:30:57.271Z,100.00
2022-10-18T08:33:26.479Z,100.00
2022-10-18T08:35:57.938Z,100.00
2022-10-18T08:38:25.959Z,100.00
2022-10-18T08:40:53.801Z,100.00
2022-10-18T08:43:32.436Z,100.00
2022-10-18T08:46:00.720Z,100.00
2022-10-18T08:48:36.297Z,100.00
2022-10-18T08:51:05.950Z,100.00
2022-10-18T08:53:41.572Z,100.00
2022-10-18T08:56:14.793Z,100.00
2022-10-18T08:58:44.876Z,100.00
2022-10-18T09:01:26.607Z,100.00
2022-10-18T09:04:10.469Z,100.00
2022-10-18T09:06:45.824Z,100.00
2022-10-18T09:09:21.651Z,100.00
2022-10-18T09:12:02.007Z,100.00
2022-10-18T09:15:14.115Z,100.00
2022-10-18T09:17:53.568Z,100.00
2022-10-18T09:20:26.319Z,100.00
2022-10-18T09:22:57.061Z,100.00
2022-10-18T09:25:27.157Z,100.00
2022-10-18T09:27:57.743Z,100.00
2022-10-18T09:30:40.597Z,100.00
2022-10-18T09:33:25.812Z,100.00
2022-10-18T09:35:58.340Z,100.00
2022-10-18T09:38:30.753Z,100.00
2022-10-18T09:41:01.895Z,100.00
2022-10-18T09:43:43.288Z,100.00
2022-10-18T09:46:11.624Z,100.00
2022-10-18T09:48:46.347Z,100.00
2022-10-18T09:51:21.986Z,100.00
2022-10-18T09:54:16.080Z,100.00
2022-10-18T09:56:48.433Z,100.00
2022-10-18T09:59:30.417Z,100.00
2022-10-18T10:01:58.197Z,100.00
2022-10-18T10:04:25.936Z,100.00
2022-10-18T10:06:57.544Z,100.00
2022-10-18T10:09:29.460Z,100.00
2022-10-18T10:11:58.415Z,100.00
2022-10-18T10:14:27.912Z,100.00
2022-10-18T10:16:58.312Z,100.00
2022-10-18T10:19:29.093Z,100.00
2022-10-18T10:22:11.542Z,100.00
2022-10-18T10:24:48.657Z,100.00
2022-10-18T10:27:20.983Z,100.00
2022-10-18T10:29:56.993Z,100.00
2022-10-18T10:32:30.954Z,100.00
2022-10-18T10:34:59.308Z,100.00
2022-10-18T10:37:32.321Z,100.00
2022-10-18T10:40:19.795Z,100.00
2022-10-18T10:43:12.794Z,100.00
2022-10-18T10:46:00.936Z,100.00
2022-10-18T10:48:33.456Z,100.00
2022-10-18T10:51:05.339Z,100.00
2022-10-18T10:53:42.555Z,100.00
2022-10-18T10:56:25.767Z,100.00
2022-10-18T10:58:55.317Z,100.00
2022-10-18T11:01:27.457Z,100.00
2022-10-18T11:03:57.577Z,100.00
2022-10-18T11:06:48.741Z,100.00
2022-10-18T11:09:31.673Z,100.00
2022-10-18T11:12:26.495Z,100.00
2022-10-18T11:15:02.560Z,100.00
2022-10-18T11:17:36.793Z,100.00
2022-10-18T11:20:15.898Z,100.00
2022-10-18T11:22:50.597Z,100.00
2022-10-18T11:25:23.042Z,100.00
2022-10-18T11:27:57.785Z,100.00
2022-10-18T11:30:45.175Z,100.00
2022-10-18T11:33:29.513Z,100.00
2022-10-18T11:36:11.406Z,100.00
2022-10-18T11:38:46.193Z,100.00
2022-10-18T11:41:30.979Z,100.00
2022-10-18T11:44:03.110Z,100.00
2022-10-18T11:46:46.191Z,100.00
2022-10-18T11:49:28.433Z,100.00
2022-10-18T11:52:09.362Z,100.00
2022-10-18T11:55:06.166Z,100.00
2022-10-18T11:57:44.809Z,100.00
2022-10-18T12:00:24.732Z,100.00
2022-10-18T12:03:08.044Z,100.00
2022-10-18T12:05:39.016Z,99.27
2022-10-18T12:08:09.741Z,99.11
2022-10-18T12:10:46.081Z,99.13
2022-10-18T12:13:28.981Z,98.97
2022-10-18T12:15:56.898Z,100.00
2022-10-18T12:18:26.785Z,100.00
2022-10-18T12:20:57.177Z,100.00
2022-10-18T12:23:37.496Z,100.00
2022-10-18T12:26:07.617Z,99.21
2022-10-18T12:28:45.993Z,97.43
2022-10-18T12:31:21.812Z,97.01
2022-10-18T12:33:52.674Z,94.37
2022-10-18T12:36:37.811Z,93.60
2022-10-18T12:39:12.086Z,89.66
2022-10-18T12:41:40.149Z,87.01
2022-10-18T12:44:20.718Z,82.75
2022-10-18T12:46:52.383Z,80.67
2022-10-18T12:49:28.576Z,82.63
2022-10-18T12:51:59.446Z,80.52
2022-10-18T12:54:30.570Z,82.24
2022-10-18T12:56:59.237Z,83.59
2022-10-18T12:59:53.636Z,84.62
2022-10-18T13:02:31.071Z,85.27
2022-10-18T13:05:00.956Z,85.16
2022-10-18T13:07:43.006Z,86.38
2022-10-18T13:10:41.363Z,86.15
2022-10-18T13:13:39.073Z,86.43
2022-10-18T13:16:22.264Z,85.41
2022-10-18T13:18:55.444Z,83.89
2022-10-18T13:21:34.241Z,83.09
2022-10-18T13:24:16.998Z,84.05
2022-10-18T13:27:04.082Z,80.08
2022-10-18T13:30:01.328Z,81.24
2022-10-18T13:32:36.509Z,82.07
2022-10-18T13:35:06.436Z,81.83
2022-10-18T13:37:34.219Z,81.90
2022-10-18T13:40:25.136Z,82.02
2022-10-18T13:42:53.022Z,82.11
2022-10-18T13:45:55.527Z,82.64
2022-10-18T13:48:47.718Z,83.36
2022-10-18T13:51:36.479Z,83.10
2022-10-18T13:54:17.568Z,82.99
2022-10-18T13:56:57.860Z,82.14
2022-10-18T14:02:50.658Z,84.99
2022-10-18T14:05:34.400Z,86.66
2022-10-18T14:08:10.413Z,89.11
2022-10-18T14:11:01.390Z,87.89
2022-10-18T14:13:39.810Z,88.07
2022-10-18T14:16:19.057Z,89.01
2022-10-18T14:18:52.347Z,88.46
2022-10-18T14:21:31.156Z,88.42
2022-10-18T14:24:00.077Z,88.31
2022-10-18T14:26:29.386Z,87.76
2022-10-18T14:29:06.179Z,86.56
2022-10-18T14:31:35.763Z,86.88
2022-10-18T14:34:03.978Z,85.86
2022-10-18T14:36:40.549Z,84.80
2022-10-18T14:39:17.520Z,84.23
2022-10-18T14:41:50.203Z,85.65
2022-10-18T14:44:21.388Z,84.11
2022-10-18T14:46:51.365Z,83.51
2022-10-18T14:49:20.724Z,83.38
2022-10-18T14:51:52.010Z,83.63
2022-10-18T14:54:26.123Z,84.64
2022-10-18T14:56:57.564Z,85.24
2022-10-18T14:59:28.139Z,85.27
2022-10-18T15:01:59.028Z,85.53
2022-10-18T15:04:32.999Z,85.10
2022-10-18T15:07:04.851Z,84.29
2022-10-18T15:09:35.316Z,83.76
2022-10-18T15:12:06.110Z,83.35
2022-10-18T15:14:35.916Z,84.19
2022-10-18T15:17:08.879Z,85.11
2022-10-18T15:19:39.868Z,85.67
2022-10-18T15:25:14.477Z,85.04
2022-10-18T15:27:46.321Z,84.70
2022-10-18T15:30:19.714Z,85.71
2022-10-18T15:32:50.795Z,86.06
2022-10-18T15:35:25.740Z,85.71
2022-10-18T15:37:56.808Z,85.33
2022-10-18T15:40:37.264Z,85.93
2022-10-18T15:43:06.894Z,86.92
2022-10-18T15:45:38.403Z,87.21
2022-10-18T15:48:21.875Z,88.43
2022-10-18T15:50:51.981Z,88.47
2022-10-18T15:53:51.241Z,88.41
2022-10-18T15:56:40.668Z,88.80
2022-10-18T15:59:23.806Z,89.85
2022-10-18T16:01:51.766Z,89.44
2022-10-18T16:04:26.407Z,89.58
2022-10-18T16:06:55.493Z,90.35
2022-10-18T16:09:26.862Z,89.78
2022-10-18T16:11:57.289Z,89.32
2022-10-18T16:14:26.834Z,90.43
2022-10-18T16:16:59.523Z,91.24
2022-10-18T16:19:27.664Z,92.26
2022-10-18T16:21:56.096Z,93.17
2022-10-18T16:24:25.243Z,93.32
2022-10-18T16:26:54.068Z,93.58
2022-10-18T16:29:26.140Z,93.55
2022-10-18T16:31:57.802Z,93.78
2022-10-18T16:34:26.774Z,94.31
2022-10-18T16:36:54.970Z,94.80
2022-10-18T16:39:23.110Z,95.44
2022-10-18T16:41:52.415Z,95.27
2022-10-18T16:44:20.153Z,95.43
2022-10-18T16:46:51.093Z,96.03
2022-10-18T16:49:24.297Z,95.92
2022-10-18T16:51:52.804Z,96.76
2022-10-18T16:54:20.491Z,96.53
2022-10-18T16:56:49.908Z,96.11
2022-10-18T16:59:25.141Z,96.90
2022-10-18T17:01:52.854Z,97.49
2022-10-18T17:04:20.746Z,97.29
2022-10-18T17:06:48.954Z,97.27
2022-10-18T17:09:17.268Z,97.44
2022-10-18T17:11:44.966Z,97.25
2022-10-18T17:14:12.879Z,97.49
2022-10-18T17:16:45.412Z,98.29
2022-10-18T17:19:16.312Z,99.80
2022-10-18T17:21:44.084Z,99.60
2022-10-18T17:24:11.873Z,98.90
2022-10-18T17:26:40.124Z,99.28
2022-10-18T17:29:08.921Z,98.58
2022-10-18T17:31:36.692Z,99.72
2022-10-18T17:34:06.374Z,99.85
2022-10-18T17:36:35.296Z,99.81
2022-10-18T17:39:03.451Z,99.53
2022-10-18T17:41:31.577Z,100.00
2022-10-18T17:43:59.255Z,100.00
2022-10-18T17:46:26.984Z,100.00
2022-10-18T17:48:55.011Z,100.00
2022-10-18T17:51:24.499Z,100.00
2022-10-18T17:53:52.603Z,100.00
2022-10-18T17:56:20.411Z,100.00
2022-10-18T17:58:51.570Z,100.00
2022-10-18T18:01:21.994Z,100.00
2022-10-18T18:03:50.181Z,100.00
2022-10-18T18:06:19.822Z,100.00
2022-10-18T18:08:49.757Z,100.00
2022-10-18T18:11:18.921Z,100.00
2022-10-18T18:13:46.639Z,100.00
2022-10-18T18:16:17.298Z,100.00
2022-10-18T18:18:45.564Z,100.00
2022-10-18T18:21:13.384Z,100.00
2022-10-18T18:23:41.426Z,100.00
2022-10-18T18:26:10.646Z,100.00
2022-10-18T18:28:38.724Z,100.00
2022-10-18T18:31:07.975Z,100.00
2022-10-18T18:33:35.927Z,100.00
2022-10-18T18:36:05.107Z,100.00
2022-10-18T18:38:33.664Z,100.00
2022-10-18T18:41:06.427Z,100.00
2022-10-18T18:43:36.317Z,100.00
2022-10-18T18:46:05.040Z,100.00
2022-10-18T18:48:34.100Z,100.00
2022-10-18T18:51:02.031Z,100.00
2022-10-18T18:53:30.301Z,100.00
2022-10-18T18:56:02.842Z,100.00
2022-10-18T18:58:30.625Z,100.00
2022-10-18T19:00:59.795Z,100.00
2022-10-18T19:03:27.687Z,100.00
2022-10-18T19:06:03.627Z,100.00
2022-10-18T19:08:31.434Z,100.00
2022-10-18T19:10:59.156Z,100.00
2022-10-18T19:13:26.839Z,100.00
2022-10-18T19:16:22.759Z,100.00
2022-10-18T19:18:55.673Z,100.00
2022-10-18T19:21:24.494Z,100.00
2022-10-18T19:23:52.143Z,100.00
2022-10-18T19:26:27.694Z,100.00
2022-10-18T19:28:55.254Z,100.00
2022-10-18T19:31:24.407Z,100.00
2022-10-18T19:33:59.239Z,100.00
2022-10-18T19:36:27.843Z,100.00
2022-10-18T19:38:55.599Z,100.00
2022-10-18T19:43:53.269Z,100.00
2022-10-18T19:46:21.056Z,100.00
2022-10-18T19:48:50.198Z,100.00
2022-10-18T19:51:22.843Z,100.00
2022-10-18T19:53:53.000Z,100.00
2022-10-18T19:56:23.323Z,100.00
2022-10-18T19:58:51.967Z,100.00
2022-10-18T20:01:20.084Z,100.00
2022-10-18T20:03:48.654Z,100.00
2022-10-18T20:06:18.349Z,100.00
2022-10-18T20:08:46.257Z,100.00
2022-10-18T20:11:16.172Z,100.00
2022-10-18T20:13:44.069Z,100.00
2022-10-18T20:16:13.843Z,100.00
2022-10-18T20:18:43.436Z,100.00
2022-10-18T20:21:12.612Z,100.00
2022-10-18T20:23:42.864Z,100.00
2022-10-18T20:26:17.936Z,100.00
2022-10-18T20:28:49.087Z,100.00
2022-10-18T20:31:18.867Z,100.00
2022-10-18T20:33:47.515Z,100.00
2022-10-18T20:36:17.472Z,100.00
2022-10-18T20:38:48.339Z,100.00
2022-10-18T20:41:18.367Z,100.00
2022-10-18T20:43:50.992Z,100.00
2022-10-18T20:46:19.823Z,100.00
2022-10-18T20:48:47.818Z,100.00
2022-10-18T20:51:16.213Z,100.00
2022-10-18T20:53:44.611Z,100.00
2022-10-18T20:56:15.288Z,100.00
2022-10-18T20:58:45.923Z,100.00
2022-10-18T21:01:15.776Z,100.00
2022-10-18T21:03:45.579Z,100.00
2022-10-18T21:06:14.985Z,100.00
2022-10-18T21:08:44.060Z,100.00
2022-10-18T21:11:14.497Z,100.00
2022-10-18T21:13:42.195Z,100.00
2022-10-18T21:16:10.087Z,100.00
2022-10-18T21:18:40.275Z,100.00
2022-10-18T21:21:09.928Z,100.00
2022-10-18T21:23:37.884Z,100.00
2022-10-18T21:26:06.053Z,100.00
2022-10-18T21:28:35.939Z,100.00
2022-10-18T21:31:12.574Z,100.00
2022-10-18T21:33:40.864Z,100.00
2022-10-18T21:36:09.447Z,100.00
2022-10-18T21:38:37.638Z,100.00
2022-10-18T21:41:09.630Z,100.00
2022-10-18T21:43:40.542Z,100.00
2022-10-18T21:46:09.954Z,100.00
2022-10-18T21:48:38.703Z,100.00
2022-10-18T21:51:08.552Z,100.00
2022-10-18T21:53:37.086Z,100.00
2022-10-18T21:56:06.945Z,100.00
2022-10-18T21:58:35.398Z,100.00
2022-10-18T22:01:08.354Z,100.00
2022-10-18T22:03:36.396Z,100.00
2022-10-18T22:06:09.266Z,100.00
2022-10-18T22:08:37.301Z,100.00
2022-10-18T22:11:05.090Z,100.00
2022-10-18T22:13:32.902Z,100.00
2022-10-18T22:16:02.354Z,100.00
2022-10-18T22:18:32.437Z,100.00
2022-10-18T22:21:02.460Z,100.00
2022-10-18T22:23:34.289Z,100.00
2022-10-18T22:26:07.629Z,100.00
2022-10-18T22:28:35.505Z,100.00
2022-10-18T22:31:03.293Z,100.00
2022-10-18T22:33:32.852Z,100.00
2022-10-18T22:36:00.696Z,100.00
2022-10-18T22:38:28.473Z,100.00
2022-10-18T22:40:56.157Z,100.00
2022-10-18T22:43:23.861Z,100.00
2022-10-18T22:45:51.533Z,100.00
2022-10-18T22:48:19.222Z,100.00
2022-10-18T22:50:48.315Z,100.00
2022-10-18T22:53:15.979Z,100.00
2022-10-18T22:55:43.697Z,100.00
2022-10-18T22:58:11.521Z,100.00
2022-10-18T23:00:39.325Z,100.00
2022-10-18T23:03:07.139Z,100.00
2022-10-18T23:05:38.927Z,100.00
2022-10-18T23:08:08.567Z,100.00
2022-10-18T23:10:37.550Z,100.00
2022-10-18T23:13:05.956Z,100.00
2022-10-18T23:15:33.891Z,100.00
2022-10-18T23:18:02.473Z,100.00
2022-10-18T23:20:30.268Z,100.00
2022-10-18T23:22:58.087Z,100.00
2022-10-18T23:25:27.632Z,100.00
2022-10-18T23:27:55.512Z,100.00
2022-10-18T23:30:23.494Z,100.00
2022-10-18T23:32:51.201Z,100.00
2022-10-18T23:35:19.093Z,100.00
2022-10-18T23:37:46.826Z,100.00
2022-10-18T23:40:14.603Z,100.00
2022-10-18T23:42:43.681Z,100.00
2022-10-18T23:45:11.685Z,100.00
2022-10-18T23:47:39.580Z,100.00
2022-10-18T23:50:07.873Z,100.00
2022-10-18T23:52:35.657Z,100.00
2022-10-18T23:55:03.581Z,100.00
2022-10-18T23:57:31.468Z,100.00
